createdAt,value
2022-12-23T00:00:52.753Z,9.63
2022-12-23T00:03:39.431Z,9.62
2022-12-23T00:06:24.730Z,9.60
2022-12-23T00:09:10.164Z,9.62
2022-12-23T00:12:13.666Z,9.52
2022-12-23T00:15:08.169Z,9.61
2022-12-23T00:17:53.005Z,9.57
2022-12-23T00:20:38.190Z,9.56
2022-12-23T00:23:23.228Z,9.57
2022-12-23T00:26:12.912Z,9.48
2022-12-23T00:28:58.633Z,9.55
2022-12-23T00:31:43.826Z,9.54
2022-12-23T00:34:29.270Z,9.54
2022-12-23T00:37:14.253Z,9.50
2022-12-23T00:40:37.759Z,9.47
2022-12-23T00:43:22.657Z,9.39
2022-12-23T00:46:07.784Z,9.49
2022-12-23T00:49:11.603Z,9.52
2022-12-23T00:51:56.897Z,9.43
2022-12-23T00:54:42.168Z,9.42
2022-12-23T00:57:27.197Z,9.40
2022-12-23T01:00:12.735Z,9.39
2022-12-23T01:03:27.352Z,9.40
2022-12-23T01:06:13.011Z,9.47
2022-12-23T01:08:57.910Z,9.50
2022-12-23T01:11:43.290Z,9.45
2022-12-23T01:14:28.783Z,9.41
2022-12-23T01:17:15.168Z,9.33
2022-12-23T01:20:00.864Z,9.19
2022-12-23T01:22:45.991Z,9.35
2022-12-23T01:25:31.651Z,9.32
2022-12-23T01:28:16.777Z,9.33
2022-12-23T01:31:03.905Z,9.32
2022-12-23T01:33:49.145Z,9.33
2022-12-23T01:36:34.357Z,9.32
2022-12-23T01:39:19.396Z,9.28
2022-12-23T01:42:24.708Z,9.32
2022-12-23T01:45:15.967Z,9.28
2022-12-23T01:48:06.706Z,9.28
2022-12-23T01:51:05.986Z,9.18
2022-12-23T01:53:53.869Z,9.23
2022-12-23T01:56:40.120Z,9.11
2022-12-23T01:59:44.569Z,9.17
2022-12-23T02:02:53.199Z,9.14
2022-12-23T02:05:38.546Z,8.98
2022-12-23T02:08:42.002Z,9.02
2022-12-23T02:11:37.829Z,9.01
2022-12-23T02:15:24.330Z,9.00
2022-12-23T02:18:18.486Z,9.01
2022-12-23T02:21:22.213Z,9.01
2022-12-23T02:24:39.737Z,9.01
2022-12-23T02:27:30.106Z,8.99
2022-12-23T02:30:28.313Z,8.88
2022-12-23T02:33:26.369Z,8.96
2022-12-23T02:36:37.332Z,8.87
2022-12-23T02:39:37.203Z,8.88
2022-12-23T02:42:40.455Z,8.82
2022-12-23T02:45:34.508Z,8.82
2022-12-23T02:48:29.902Z,8.83
2022-12-23T02:51:16.235Z,8.81
2022-12-23T02:54:05.094Z,8.71
2022-12-23T02:56:53.976Z,8.77
2022-12-23T02:59:48.184Z,8.72
2022-12-23T03:02:40.120Z,8.72
2022-12-23T03:05:34.756Z,8.68
2022-12-23T03:08:28.522Z,8.70
2022-12-23T03:11:18.218Z,8.68
2022-12-23T03:14:22.076Z,8.68
2022-12-23T03:17:25.840Z,8.64
2022-12-23T03:20:13.732Z,8.64
2022-12-23T03:23:13.459Z,8.66
2022-12-23T03:26:11.969Z,8.66
2022-12-23T03:29:19.484Z,8.50
2022-12-23T03:32:06.844Z,8.64
2022-12-23T03:34:55.891Z,8.62
2022-12-23T03:37:45.166Z,8.60
2022-12-23T03:40:37.179Z,8.58
2022-12-23T03:43:29.179Z,8.59
2022-12-23T03:46:22.876Z,8.49
2022-12-23T03:49:13.860Z,8.60
2022-12-23T03:52:08.390Z,8.55
2022-12-23T03:54:57.975Z,8.60
2022-12-23T03:57:55.908Z,8.54
2022-12-23T04:00:59.866Z,8.57
2022-12-23T04:04:03.743Z,8.59
2022-12-23T04:07:05.981Z,8.58
2022-12-23T04:09:53.232Z,8.56
2022-12-23T04:12:39.279Z,8.54
2022-12-23T04:15:26.670Z,8.57
2022-12-23T04:18:12.069Z,8.59
2022-12-23T04:20:58.403Z,8.59
2022-12-23T04:23:43.423Z,8.60
2022-12-23T04:26:28.634Z,8.58
2022-12-23T04:29:13.661Z,8.58
2022-12-23T04:31:58.890Z,8.57
2022-12-23T04:34:44.057Z,8.58
2022-12-23T04:37:28.875Z,8.57
2022-12-23T04:40:14.317Z,8.58
2022-12-23T04:42:59.253Z,8.56
2022-12-23T04:45:44.258Z,8.43
2022-12-23T04:48:29.203Z,8.55
2022-12-23T04:51:14.553Z,8.46
2022-12-23T04:53:59.889Z,8.57
2022-12-23T04:56:45.083Z,8.39
2022-12-23T04:59:31.468Z,8.58
2022-12-23T05:02:16.685Z,8.49
2022-12-23T05:05:02.179Z,8.57
2022-12-23T05:07:50.278Z,8.50
2022-12-23T05:10:35.216Z,8.47
2022-12-23T05:13:20.126Z,8.56
2022-12-23T05:16:05.945Z,8.51
2022-12-23T05:18:51.354Z,8.53
2022-12-23T05:21:36.531Z,8.46
2022-12-23T05:24:21.655Z,8.55
2022-12-23T05:27:06.656Z,8.54
2022-12-23T05:29:51.974Z,8.53
2022-12-23T05:32:36.935Z,8.55
2022-12-23T05:35:24.205Z,8.57
2022-12-23T05:38:09.485Z,8.50
2022-12-23T05:40:54.357Z,8.58
2022-12-23T05:43:39.560Z,8.58
2022-12-23T05:46:27.098Z,8.62
2022-12-23T05:49:12.742Z,8.57
2022-12-23T05:51:57.761Z,8.59
2022-12-23T05:54:42.736Z,8.55
2022-12-23T05:57:27.538Z,8.61
2022-12-23T06:00:13.099Z,8.57
2022-12-23T06:02:58.501Z,8.48
2022-12-23T06:05:44.019Z,8.58
2022-12-23T06:08:29.346Z,8.58
2022-12-23T06:11:14.363Z,8.41
2022-12-23T06:13:59.629Z,8.57
2022-12-23T06:16:44.716Z,8.53
2022-12-23T06:19:29.916Z,8.51
2022-12-23T06:22:16.310Z,8.56
2022-12-23T06:25:01.099Z,8.51
2022-12-23T06:27:46.592Z,8.42
2022-12-23T06:30:31.493Z,8.41
2022-12-23T06:33:16.451Z,8.52
2022-12-23T06:36:01.292Z,8.44
2022-12-23T06:38:46.358Z,8.44
2022-12-23T06:41:31.613Z,8.50
2022-12-23T06:44:16.781Z,8.43
2022-12-23T06:47:02.102Z,8.44
2022-12-23T06:49:47.286Z,8.42
2022-12-23T06:52:32.557Z,8.27
2022-12-23T06:55:17.448Z,8.42
2022-12-23T06:58:04.998Z,8.43
2022-12-23T07:00:50.352Z,8.42
2022-12-23T07:03:35.588Z,8.38
2022-12-23T07:06:20.674Z,8.35
2022-12-23T07:09:07.249Z,8.25
2022-12-23T07:11:52.566Z,8.35
2022-12-23T07:14:37.729Z,8.36
2022-12-23T07:17:22.958Z,8.34
2022-12-23T07:20:08.603Z,8.35
2022-12-23T07:22:57.388Z,8.36
2022-12-23T07:25:42.588Z,8.33
2022-12-23T07:28:27.970Z,8.38
2022-12-23T07:31:13.313Z,8.36
2022-12-23T07:33:58.650Z,8.34
2022-12-23T07:36:44.030Z,8.29
2022-12-23T07:39:29.044Z,8.32
2022-12-23T07:42:43.471Z,8.29
2022-12-23T07:45:19.216Z,8.25
2022-12-23T07:48:04.292Z,8.29
2022-12-23T07:50:49.642Z,8.32
2022-12-23T07:53:34.832Z,8.29
2022-12-23T07:56:19.877Z,8.29
2022-12-23T07:59:04.999Z,8.27
2022-12-23T08:01:50.151Z,8.25
2022-12-23T08:04:38.355Z,8.26
2022-12-23T08:07:25.923Z,8.14
2022-12-23T08:10:11.783Z,8.23
2022-12-23T08:13:00.590Z,8.25
2022-12-23T08:15:45.767Z,8.22
2022-12-23T08:18:32.721Z,8.17
2022-12-23T08:21:19.502Z,8.21
2022-12-23T08:24:04.849Z,8.11
2022-12-23T08:26:50.045Z,8.10
2022-12-23T08:29:36.548Z,8.06
2022-12-23T08:32:22.113Z,8.14
2022-12-23T08:35:07.734Z,8.14
2022-12-23T08:37:52.593Z,8.14
2022-12-23T08:40:40.617Z,8.16
2022-12-23T08:43:30.219Z,8.17
2022-12-23T08:46:19.023Z,8.12
2022-12-23T08:49:05.875Z,8.10
2022-12-23T08:51:51.097Z,8.11
2022-12-23T08:54:36.326Z,8.14
2022-12-23T08:57:21.287Z,8.11
2022-12-23T09:00:07.128Z,8.11
2022-12-23T09:02:52.173Z,8.14
2022-12-23T09:05:41.997Z,8.18
2022-12-23T09:08:27.066Z,8.01
2022-12-23T09:11:19.041Z,8.19
2022-12-23T09:14:04.717Z,8.21
2022-12-23T09:16:51.749Z,8.21
2022-12-23T09:19:36.731Z,8.23
2022-12-23T09:22:21.796Z,8.18
2022-12-23T09:25:07.497Z,8.21
2022-12-23T09:27:52.439Z,8.14
2022-12-23T09:30:37.544Z,8.15
2022-12-23T09:33:23.138Z,8.28
2022-12-23T09:36:08.577Z,8.29
2022-12-23T09:38:55.674Z,8.30
2022-12-23T09:41:52.239Z,8.23
2022-12-23T09:45:13.137Z,8.33
2022-12-23T09:47:58.926Z,8.35
2022-12-23T09:50:45.612Z,8.36
2022-12-23T09:53:52.516Z,8.39
2022-12-23T09:56:58.579Z,8.23
2022-12-23T10:00:15.873Z,8.39
2022-12-23T10:03:38.211Z,8.46
2022-12-23T10:06:28.158Z,8.43
2022-12-23T10:09:16.746Z,8.35
2022-12-23T10:12:14.188Z,8.49
2022-12-23T10:15:02.559Z,8.87
2022-12-23T10:17:52.555Z,8.83
2022-12-23T10:20:41.453Z,8.83
2022-12-23T10:23:37.412Z,8.77
2022-12-23T10:26:36.738Z,8.94
2022-12-23T10:29:30.030Z,8.94
2022-12-23T10:32:38.084Z,9.00
2022-12-23T10:35:43.045Z,8.90
2022-12-23T10:38:56.238Z,9.15
2022-12-23T10:41:47.238Z,9.21
2022-12-23T10:45:06.575Z,9.33
2022-12-23T10:48:11.957Z,9.37
2022-12-23T10:51:30.376Z,9.41
2022-12-23T10:54:22.724Z,9.43
2022-12-23T10:57:08.529Z,9.49
2022-12-23T10:59:53.748Z,9.56
2022-12-23T11:02:49.653Z,9.60
2022-12-23T11:05:35.967Z,9.63
2022-12-23T11:08:23.486Z,9.69
2022-12-23T11:11:08.624Z,9.72
2022-12-23T11:13:53.771Z,9.79
2022-12-23T11:16:45.651Z,9.94
2022-12-23T11:19:31.221Z,10.06
2022-12-23T11:22:25.044Z,10.24
2022-12-23T11:25:27.658Z,10.45
2022-12-23T11:28:19.509Z,10.64
2022-12-23T11:31:09.671Z,10.79
2022-12-23T11:34:00.408Z,10.89
2022-12-23T11:37:01.573Z,10.98
2022-12-23T11:39:50.871Z,11.07
2022-12-23T11:42:36.125Z,11.07
2022-12-23T11:45:24.754Z,11.12
2022-12-23T11:48:36.660Z,11.31
2022-12-23T11:51:26.699Z,11.33
2022-12-23T11:54:19.200Z,11.32
2022-12-23T11:57:07.260Z,11.37
2022-12-23T11:59:59.600Z,11.44
2022-12-23T12:02:47.264Z,11.54
2022-12-23T12:05:37.891Z,11.59
2022-12-23T12:08:28.302Z,11.67
2022-12-23T12:11:24.510Z,11.79
2022-12-23T12:14:21.561Z,11.70
2022-12-23T12:17:33.450Z,11.78
2022-12-23T12:20:30.124Z,11.96
2022-12-23T12:23:25.451Z,12.17
2022-12-23T12:26:22.065Z,12.21
2022-12-23T12:29:29.625Z,12.16
2022-12-23T12:32:40.958Z,12.13
2022-12-23T12:35:37.653Z,12.12
2022-12-23T12:38:30.066Z,12.10
2022-12-23T12:41:21.853Z,12.11
2022-12-23T12:44:16.026Z,12.17
2022-12-23T12:47:44.813Z,11.98
2022-12-23T12:50:29.265Z,11.80
2022-12-23T12:53:19.217Z,11.92
2022-12-23T12:56:16.873Z,11.85
2022-12-23T12:59:02.125Z,11.81
2022-12-23T13:02:09.086Z,11.79
2022-12-23T13:05:11.581Z,11.72
2022-12-23T13:08:15.216Z,11.69
2022-12-23T13:11:28.947Z,11.59
2022-12-23T13:14:26.126Z,11.58
2022-12-23T13:17:24.685Z,11.60
2022-12-23T13:20:16.185Z,11.66
2022-12-23T13:23:41.808Z,11.67
2022-12-23T13:26:51.414Z,11.64
2022-12-23T13:29:58.522Z,11.62
2022-12-23T13:32:56.278Z,11.62
2022-12-23T13:35:41.098Z,11.65
2022-12-23T13:38:35.913Z,11.62
2022-12-23T13:41:25.232Z,11.60
2022-12-23T13:44:13.529Z,11.54
2022-12-23T13:47:28.402Z,11.57
2022-12-23T13:50:24.032Z,11.60
2022-12-23T13:53:35.112Z,11.61
2022-12-23T13:56:41.665Z,11.58
2022-12-23T13:59:42.017Z,11.55
2022-12-23T14:02:36.653Z,11.51
2022-12-23T14:05:45.162Z,11.40
2022-12-23T14:08:50.528Z,11.33
2022-12-23T14:11:36.657Z,11.43
2022-12-23T14:14:24.979Z,11.52
2022-12-23T14:17:28.004Z,11.58
2022-12-23T14:20:48.258Z,11.54
2022-12-23T14:23:36.358Z,11.57
2022-12-23T14:26:47.225Z,11.55
2022-12-23T14:29:49.585Z,11.58
2022-12-23T14:32:43.892Z,11.52
2022-12-23T14:35:36.937Z,11.44
2022-12-23T14:38:32.789Z,11.40
2022-12-23T14:41:20.399Z,11.38
2022-12-23T14:44:41.327Z,11.32
2022-12-23T14:47:36.544Z,11.21
2022-12-23T14:50:42.654Z,11.27
2022-12-23T14:53:30.091Z,11.24
2022-12-23T14:56:15.077Z,11.23
2022-12-23T14:59:09.223Z,11.20
2022-12-23T15:01:58.606Z,11.16
2022-12-23T15:04:50.775Z,11.14
2022-12-23T15:07:43.484Z,11.11
2022-12-23T15:10:29.096Z,11.11
2022-12-23T15:13:19.137Z,11.11
2022-12-23T15:16:04.220Z,11.11
2022-12-23T15:18:57.579Z,11.11
2022-12-23T15:21:46.450Z,11.08
2022-12-23T15:24:33.710Z,11.09
2022-12-23T15:27:29.770Z,11.04
2022-12-23T15:30:17.306Z,10.99
2022-12-23T15:33:16.103Z,10.85
2022-12-23T15:36:11.537Z,10.88
2022-12-23T15:38:58.032Z,10.86
2022-12-23T15:41:45.301Z,10.86
2022-12-23T15:44:37.317Z,10.90
2022-12-23T15:47:29.051Z,10.89
2022-12-23T15:50:18.266Z,10.86
2022-12-23T15:53:06.439Z,10.86
2022-12-23T15:55:51.441Z,10.86
2022-12-23T15:58:40.317Z,10.82
2022-12-23T16:01:26.416Z,10.72
2022-12-23T16:04:20.320Z,10.75
2022-12-23T16:07:05.738Z,10.69
2022-12-23T16:09:53.844Z,10.60
2022-12-23T16:12:40.086Z,10.56
2022-12-23T16:15:33.066Z,10.57
2022-12-23T16:18:32.697Z,10.55
2022-12-23T16:21:18.096Z,10.49
2022-12-23T16:24:08.512Z,10.43
2022-12-23T16:26:55.640Z,10.48
2022-12-23T16:29:40.696Z,10.49
2022-12-23T16:32:26.464Z,10.40
2022-12-23T16:35:12.862Z,10.39
2022-12-23T16:38:09.942Z,10.37
2022-12-23T16:40:56.663Z,10.32
2022-12-23T16:43:47.649Z,10.21
2022-12-23T16:46:39.934Z,10.26
2022-12-23T16:49:33.011Z,10.18
2022-12-23T16:52:24.233Z,10.12
2022-12-23T16:55:15.903Z,10.10
2022-12-23T16:58:01.307Z,10.14
2022-12-23T17:00:47.230Z,10.12
2022-12-23T17:03:32.924Z,10.14
2022-12-23T17:06:19.034Z,10.16
2022-12-23T17:09:05.677Z,10.16
2022-12-23T17:11:53.233Z,10.17
2022-12-23T17:14:38.718Z,10.17
2022-12-23T17:17:25.918Z,10.16
2022-12-23T17:20:12.014Z,10.14
2022-12-23T17:22:59.921Z,10.13
2022-12-23T17:25:45.109Z,10.09
2022-12-23T17:28:32.654Z,10.09
2022-12-23T17:31:26.200Z,10.04
2022-12-23T17:34:17.513Z,10.07
2022-12-23T17:37:03.215Z,10.05
2022-12-23T17:39:48.888Z,10.01
2022-12-23T17:42:34.309Z,9.99
2022-12-23T17:45:26.358Z,9.93
2022-12-23T17:48:17.941Z,9.83
2022-12-23T17:51:05.700Z,9.90
2022-12-23T17:53:57.735Z,9.84
2022-12-23T17:56:43.244Z,9.89
2022-12-23T17:59:28.473Z,9.89
2022-12-23T18:02:32.970Z,9.89
2022-12-23T18:05:22.198Z,9.88
2022-12-23T18:08:07.408Z,9.86
2022-12-23T18:10:52.503Z,9.86
2022-12-23T18:13:38.015Z,9.76
2022-12-23T18:16:23.058Z,9.84
2022-12-23T18:19:19.771Z,9.84
2022-12-23T18:22:05.027Z,9.83
2022-12-23T18:24:55.278Z,9.86
2022-12-23T18:27:44.419Z,9.79
2022-12-23T18:30:29.859Z,9.81
2022-12-23T18:33:15.087Z,9.76
2022-12-23T18:36:00.299Z,9.70
2022-12-23T18:38:45.532Z,9.70
2022-12-23T18:41:30.455Z,9.57
2022-12-23T18:44:19.465Z,9.67
2022-12-23T18:47:04.469Z,9.61
2022-12-23T18:49:49.734Z,9.56
2022-12-23T18:52:35.477Z,9.42
2022-12-23T18:55:21.297Z,9.45
2022-12-23T18:58:06.169Z,9.40
2022-12-23T19:00:53.045Z,9.35
2022-12-23T19:03:38.185Z,9.33
2022-12-23T19:06:23.411Z,9.33
2022-12-23T19:09:08.497Z,9.20
2022-12-23T19:11:54.359Z,9.27
2022-12-23T19:14:39.876Z,9.27
2022-12-23T19:17:24.824Z,9.25
2022-12-23T19:20:13.010Z,9.24
2022-12-23T19:22:58.377Z,9.21
2022-12-23T19:25:49.208Z,9.18
2022-12-23T19:28:41.321Z,9.19
2022-12-23T19:31:26.382Z,9.17
2022-12-23T19:34:14.871Z,9.16
2022-12-23T19:37:00.988Z,9.14
2022-12-23T19:39:46.258Z,9.13
2022-12-23T19:42:31.659Z,9.03
2022-12-23T19:45:17.151Z,9.01
2022-12-23T19:48:02.458Z,9.09
2022-12-23T19:50:57.020Z,9.04
2022-12-23T19:53:42.459Z,9.07
2022-12-23T19:56:29.238Z,9.06
2022-12-23T19:59:14.372Z,9.08
2022-12-23T20:01:59.722Z,8.96
2022-12-23T20:04:44.705Z,9.02
2022-12-23T20:07:30.030Z,9.05
2022-12-23T20:10:14.931Z,8.94
2022-12-23T20:12:59.886Z,9.01
2022-12-23T20:15:44.867Z,8.99
2022-12-23T20:18:30.320Z,9.01
2022-12-23T20:21:15.656Z,8.96
2022-12-23T20:24:01.491Z,8.94
2022-12-23T20:26:46.847Z,8.90
2022-12-23T20:29:31.899Z,8.91
2022-12-23T20:32:16.831Z,8.77
2022-12-23T20:35:01.808Z,8.80
2022-12-23T20:37:46.954Z,8.82
2022-12-23T20:40:31.973Z,8.79
2022-12-23T20:43:17.002Z,8.74
2022-12-23T20:46:03.834Z,8.75
2022-12-23T20:48:49.800Z,8.74
2022-12-23T20:51:34.888Z,8.64
2022-12-23T20:54:21.950Z,8.68
2022-12-23T20:57:10.422Z,8.69
2022-12-23T20:59:55.518Z,8.72
2022-12-23T21:02:40.826Z,8.66
2022-12-23T21:05:26.262Z,8.63
2022-12-23T21:08:11.364Z,8.57
2022-12-23T21:10:57.345Z,8.55
2022-12-23T21:13:43.872Z,8.55
2022-12-23T21:16:30.729Z,8.43
2022-12-23T21:19:18.500Z,8.53
2022-12-23T21:22:03.974Z,8.41
2022-12-23T21:24:49.205Z,8.49
2022-12-23T21:27:34.416Z,8.49
2022-12-23T21:30:19.584Z,8.48
2022-12-23T21:33:04.666Z,8.47
2022-12-23T21:35:49.832Z,8.47
2022-12-23T21:38:37.365Z,8.49
2022-12-23T21:41:30.541Z,8.38
2022-12-23T21:44:15.735Z,8.49
2022-12-23T21:47:00.765Z,8.51
2022-12-23T21:49:45.617Z,8.57
2022-12-23T21:52:31.479Z,8.58
2022-12-23T21:55:18.096Z,8.58
2022-12-23T21:58:03.174Z,8.52
2022-12-23T22:00:48.253Z,8.57
2022-12-23T22:03:33.469Z,8.59
2022-12-23T22:06:22.061Z,8.63
2022-12-23T22:09:08.102Z,8.67
2022-12-23T22:11:52.935Z,8.54
2022-12-23T22:14:39.411Z,8.61
2022-12-23T22:17:24.364Z,8.58
2022-12-23T22:20:09.680Z,8.65
2022-12-23T22:22:54.678Z,8.55
2022-12-23T22:25:39.884Z,8.69
2022-12-23T22:28:25.431Z,8.72
2022-12-23T22:31:59.929Z,8.73
2022-12-23T22:34:45.527Z,8.76
2022-12-23T22:37:31.006Z,8.75
2022-12-23T22:40:16.172Z,8.77
2022-12-23T22:43:01.238Z,8.75
2022-12-23T22:45:46.737Z,8.73
2022-12-23T22:48:32.307Z,8.68
2022-12-23T22:51:20.885Z,8.74
2022-12-23T22:54:06.077Z,8.76
2022-12-23T22:56:51.182Z,8.77
2022-12-23T22:59:36.169Z,8.78
2022-12-23T23:02:21.252Z,8.78
2022-12-23T23:05:12.317Z,8.68
2022-12-23T23:07:58.115Z,8.68
2022-12-23T23:10:43.203Z,8.75
2022-12-23T23:13:31.216Z,8.75
2022-12-23T23:16:16.528Z,8.74
2022-12-23T23:19:02.227Z,8.73
2022-12-23T23:21:48.784Z,8.75
2022-12-23T23:24:35.026Z,8.75
2022-12-23T23:27:19.929Z,8.65
2022-12-23T23:30:05.279Z,8.65
2022-12-23T23:32:50.211Z,8.74
2022-12-23T23:35:36.345Z,8.74
2022-12-23T23:38:22.258Z,8.80
2022-12-23T23:41:07.569Z,8.81
2022-12-23T23:43:52.662Z,8.80
2022-12-23T23:46:39.055Z,8.77
2022-12-23T23:49:24.362Z,8.68
2022-12-23T23:52:09.637Z,8.71
2022-12-23T23:54:55.314Z,8.74
2022-12-23T23:57:40.303Z,8.70
